Terminal Aerodrome Forecast
Issued by NWS New Orleans/Baton Rouge, LA

Home | Current Version | Previous Version | Text Only | Print | Product List | Glossary On
Versions: 1 2 3 4 5 6 7 8 9 10 11 12 13 14 15 16 17 18 19 20 21 22 23 24 25 26 27
795
FTUS44 KLIX 141725
TAFNEW
TAF
KNEW 141725Z 1418/1518 14015G20KT P6SM FEW045 SCT130
     FM150000 15010KT P6SM BKN050
     FM150900 13007KT P6SM OVC030
     FM151300 16009KT P6SM BKN025
     FM151400 17010KT 5SM -SHRA BKN040
     FM151600 19011KT 3SM -SHRA BKN040=

USA.gov is the U.S. government's official web portal to all federal, state and local government web resources and services.